Time;durP1;ratioP1;P1;durP2;ratioP2;P2;SDS_P1;SDS_P2;PMS_P1;PMS_P2;Temp;Humidity;BMP_temperature;BMP_pressure;BME280_temperature;BME280_humidity;BME280_pressure;Samples;Min_cycle;Max_cycle;Signal;HPM_P1;HPM_P2
2021/04/03 00:00:43;;;;;;;37.03;16.67;;;;;;;4.17;66.78;98090.23;115000;1197;23089;-77
2021/04/03 00:03:18;;;;;;;40.80;17.85;;;;;;;4.18;67.35;98081.13;115132;1202;23297;-77
2021/04/03 00:05:45;;;;;;;41.48;19.58;;;;;;;4.19;67.19;98081.95;115153;1196;24571;-77
2021/04/03 00:08:13;;;;;;;46.03;21.43;;;;;;;4.18;67.46;98077.61;115092;1203;23257;-77
2021/04/03 00:10:47;;;;;;;50.00;21.90;;;;;;;4.19;67.33;98090.03;115027;1197;23112;-77
2021/04/03 00:13:16;;;;;;;50.30;20.30;;;;;;;4.18;66.48;98083.82;115345;1202;23100;-77
2021/04/03 00:15:44;;;;;;;46.90;20.05;;;;;;;4.16;66.42;98076.97;115336;1197;23462;-77
2021/04/03 00:18:15;;;;;;;51.03;22.57;;;;;;;4.14;66.45;98069.13;115132;1202;23081;-77
2021/04/03 00:20:45;;;;;;;48.47;21.80;;;;;;;4.12;66.26;98059.59;115190;1202;23089;-77
2021/04/03 00:23:14;;;;;;;46.75;21.15;;;;;;;4.10;66.98;98053.59;115231;1196;24730;-77
2021/04/03 00:25:41;;;;;;;41.78;20.18;;;;;;;4.05;67.01;98040.74;115320;1196;22997;-77
2021/04/03 00:28:09;;;;;;;47.25;22.25;;;;;;;4.04;67.29;98043.64;115172;1200;26573;-77
2021/04/03 00:30:35;;;;;;;51.05;23.35;;;;;;;4.02;67.45;98045.73;115291;1201;23231;-77
2021/04/03 00:33:06;;;;;;;52.20;22.13;;;;;;;4.02;67.21;98037.65;115180;1201;23415;-77
2021/04/03 00:35:39;;;;;;;52.67;24.27;;;;;;;4.02;66.85;98045.73;115356;1197;26255;-77
2021/04/03 00:38:08;;;;;;;53.30;24.77;;;;;;;3.98;67.04;98040.80;115055;1196;23093;-77
2021/04/03 00:40:41;;;;;;;53.60;24.97;;;;;;;3.90;67.04;98038.33;114855;1197;23147;-77
2021/04/03 00:43:20;;;;;;;52.47;23.47;;;;;;;3.85;66.81;98048.09;115203;1202;23113;-77
2021/04/03 00:45:48;;;;;;;43.23;21.60;;;;;;;3.77;66.88;98039.20;114968;1197;23119;-77
2021/04/03 00:48:17;;;;;;;52.63;22.53;;;;;;;3.70;66.47;98041.09;115271;1202;23093;-77
2021/04/03 00:50:47;;;;;;;48.25;21.20;;;;;;;3.65;66.60;98040.89;115214;1202;25702;-77
2021/04/03 00:53:17;;;;;;;45.03;20.97;;;;;;;3.61;66.60;98036.94;115204;1200;28214;-77
2021/04/03 00:55:49;;;;;;;42.60;20.47;;;;;;;3.54;66.52;98041.52;115231;1201;23235;-77
2021/04/03 00:58:17;;;;;;;44.90;20.57;;;;;;;3.50;67.06;98043.80;115339;1201;23113;-77
2021/04/03 01:00:48;;;;;;;50.47;22.80;;;;;;;3.43;66.97;98051.06;115299;1202;23105;-77
2021/04/03 01:03:15;;;;;;;55.60;25.60;;;;;;;3.37;66.94;98043.84;115206;1196;23119;-77
2021/04/03 01:05:43;;;;;;;45.00;22.00;;;;;;;3.35;67.44;98038.66;115385;1202;23088;-77
2021/04/03 01:08:11;;;;;;;54.60;23.60;;;;;;;3.35;67.38;98033.27;115320;1202;24523;-77
2021/04/03 01:10:43;;;;;;;58.90;25.15;;;;;;;3.35;67.54;98035.14;115255;1202;23098;-77
2021/04/03 01:13:33;;;;;;;53.13;25.03;;;;;;;3.34;67.32;98030.79;115233;1202;24715;-77
2021/04/03 01:16:10;;;;;;;56.00;24.33;;;;;;;3.31;67.46;98031.20;115298;1200;23100;-77
2021/04/03 01:18:56;;;;;;;53.65;24.00;;;;;;;3.31;67.52;98036.58;115249;1200;23084;-77
2021/04/03 01:22:01;;;;;;;52.27;24.33;;;;;;;3.28;67.75;98037.84;115278;1196;26115;-77
2021/04/03 01:24:55;;;;;;;54.30;25.30;;;;;;;3.26;68.06;98029.16;115224;1196;23088;-77
2021/04/03 01:27:24;;;;;;;49.10;24.77;;;;;;;3.28;67.92;98037.02;115186;1196;23127;-77
2021/04/03 01:30:21;;;;;;;58.18;25.30;;;;;;;3.28;68.05;98042.41;115211;1199;23289;-77
2021/04/03 01:33:11;;;;;;;53.75;25.45;;;;;;;3.27;68.15;98033.48;115307;1201;23094;-77
2021/04/03 01:35:55;;;;;;;47.60;23.90;;;;;;;3.26;68.13;98033.69;115142;1202;23254;-77
2021/04/03 01:38:32;;;;;;;49.60;25.80;;;;;;;3.22;68.14;98028.73;115242;1199;23556;-77
2021/04/03 01:41:01;;;;;;;49.73;23.77;;;;;;;3.19;68.20;98025.64;115115;1201;23119;-77
2021/04/03 01:43:37;;;;;;;50.58;22.58;;;;;;;3.19;68.44;98029.16;115260;1196;23106;-77
2021/04/03 01:46:06;;;;;;;53.93;23.10;;;;;;;3.19;68.40;98029.16;115306;1196;23257;-77
2021/04/03 01:48:35;;;;;;;51.28;23.58;;;;;;;3.21;68.95;98031.64;115298;1201;23086;-77
2021/04/03 01:51:04;;;;;;;56.13;27.20;;;;;;;3.20;69.22;98038.86;115377;1197;23245;-77
2021/04/03 01:53:34;;;;;;;59.15;27.68;;;;;;;3.21;69.60;98039.71;115309;1201;23108;-77
2021/04/03 01:56:04;;;;;;;62.40;28.35;;;;;;;3.22;69.99;98034.13;115243;1202;23167;-77
2021/04/03 01:58:40;;;;;;;54.20;24.30;;;;;;;3.25;70.16;98040.12;115307;1201;23231;-77
2021/04/03 02:01:10;;;;;;;54.25;27.65;;;;;;;3.26;70.33;98030.99;115362;1200;23127;-77
2021/04/03 02:03:38;;;;;;;61.00;29.20;;;;;;;3.25;70.37;98034.73;115444;1196;23087;-77
2021/04/03 02:06:08;;;;;;;61.33;27.40;;;;;;;3.26;70.60;98020.23;115138;1197;23335;-77
2021/04/03 02:09:00;;;;;;;56.17;26.33;;;;;;;3.26;70.44;98018.39;115020;1196;23249;-77
2021/04/03 02:11:48;;;;;;;49.60;23.73;;;;;;;3.21;70.16;98021.69;115250;1196;23095;-77
2021/04/03 02:14:39;;;;;;;39.97;19.17;;;;;;;3.12;70.43;98028.33;115161;1196;24537;-77
2021/04/03 02:17:09;;;;;;;57.58;27.55;;;;;;;3.03;70.27;98026.89;115105;1197;23090;-77
2021/04/03 02:19:39;;;;;;;58.35;27.30;;;;;;;2.97;70.32;98025.83;114791;1202;23148;-77
2021/04/03 02:22:07;;;;;;;52.53;23.80;;;;;;;2.98;70.56;98021.30;115152;1197;23113;-77
2021/04/03 02:24:36;;;;;;;52.33;25.40;;;;;;;2.99;70.52;98015.72;115152;1201;23082;-77
2021/04/03 02:27:06;;;;;;;50.60;24.67;;;;;;;3.02;70.71;98015.28;115324;1196;26265;-77
2021/04/03 02:29:34;;;;;;;53.23;24.30;;;;;;;3.03;70.78;98016.13;115240;1200;23244;-77
2021/04/03 02:32:02;;;;;;;55.13;24.67;;;;;;;3.03;70.47;98013.44;114945;1200;23173;-77
2021/04/03 02:34:29;;;;;;;52.40;26.47;;;;;;;3.04;70.66;98018.59;115155;1199;23102;-77
2021/04/03 02:36:56;;;;;;;50.93;26.47;;;;;;;3.04;70.91;98004.31;115176;1200;23308;-77
2021/04/03 02:39:23;;;;;;;55.07;26.87;;;;;;;3.01;70.96;98013.64;115316;1197;23070;-77
2021/04/03 02:42:09;;;;;;;57.60;29.50;;;;;;;2.99;71.22;98012.18;115239;1202;23106;-77
2021/04/03 02:44:57;;;;;;;53.40;26.67;;;;;;;2.97;71.41;97995.42;115189;1196;23100;-77
2021/04/03 02:47:48;;;;;;;54.15;25.00;;;;;;;2.98;71.32;97994.41;115152;1200;23098;-77
2021/04/03 02:50:40;;;;;;;53.00;23.53;;;;;;;2.98;71.89;97989.84;115214;1200;23185;-77
2021/04/03 02:53:12;;;;;;;56.35;25.25;;;;;;;2.96;71.68;97993.79;114984;1196;23087;-77
2021/04/03 02:55:46;;;;;;;59.63;28.17;;;;;;;2.96;71.80;97986.53;115390;1196;23750;-77
2021/04/03 02:58:25;;;;;;;57.07;26.93;;;;;;;2.98;71.88;97995.22;115213;1202;23094;-77
2021/04/03 03:00:57;;;;;;;61.43;27.20;;;;;;;3.00;71.95;97986.95;114950;1197;23087;-77
2021/04/03 03:03:27;;;;;;;66.40;29.63;;;;;;;3.02;71.81;97996.45;115266;1201;23082;-77
2021/04/03 03:05:57;;;;;;;58.25;28.50;;;;;;;3.05;71.75;97987.16;115308;1196;23120;-77
2021/04/03 03:08:27;;;;;;;61.73;26.87;;;;;;;3.10;71.99;97990.05;114975;1202;23715;-77
2021/04/03 03:10:56;;;;;;;56.43;26.10;;;;;;;3.13;71.13;97986.92;115212;1202;23169;-77
2021/04/03 03:13:26;;;;;;;59.23;28.88;;;;;;;3.16;71.76;97991.08;115290;1201;23144;-77
2021/04/03 03:15:53;;;;;;;54.87;27.00;;;;;;;3.17;71.75;97992.71;115320;1196;24724;-77
2021/04/03 03:18:23;;;;;;;60.93;28.13;;;;;;;3.19;71.93;98001.42;115198;1196;23148;-77
2021/04/03 03:20:51;;;;;;;58.13;28.43;;;;;;;3.19;71.59;97993.36;115040;1202;25952;-77
2021/04/03 03:23:18;;;;;;;53.37;27.00;;;;;;;3.19;71.69;97999.55;115275;1202;23109;-77
2021/04/03 03:25:46;;;;;;;59.43;27.77;;;;;;;3.18;71.50;98005.14;115079;1201;23201;-77
2021/04/03 03:28:15;;;;;;;65.87;29.53;;;;;;;3.13;71.35;97999.55;115279;1202;23099;-77
2021/04/03 03:30:44;;;;;;;66.27;30.10;;;;;;;3.11;71.34;97989.00;115268;1196;23163;-77
2021/04/03 03:33:15;;;;;;;55.30;26.90;;;;;;;3.12;71.28;97995.23;114956;1197;23161;-77
2021/04/03 03:35:42;;;;;;;60.90;28.30;;;;;;;3.11;71.43;97997.06;115205;1203;23136;-77
2021/04/03 03:38:10;;;;;;;68.90;31.97;;;;;;;3.11;71.75;97996.25;115213;1202;23179;-77
2021/04/03 03:40:38;;;;;;;61.95;30.35;;;;;;;3.11;72.02;98004.32;115122;1201;23103;-77
2021/04/03 03:43:09;;;;;;;64.90;30.85;;;;;;;3.08;72.29;97993.97;114967;1201;23099;-77
2021/04/03 03:45:38;;;;;;;63.13;30.80;;;;;;;3.05;72.38;97989.84;115074;1201;23087;-77
2021/04/03 03:48:06;;;;;;;71.43;35.27;;;;;;;3.02;72.54;97990.25;115127;1197;26114;-77
2021/04/03 03:50:36;;;;;;;73.30;35.80;;;;;;;2.99;72.59;97987.97;114830;1196;23112;-77
2021/04/03 03:53:05;;;;;;;67.17;31.23;;;;;;;3.02;72.80;97979.49;115099;1202;23233;-77
2021/04/03 03:55:33;;;;;;;61.15;31.95;;;;;;;3.03;73.16;97981.98;115102;1202;23260;-77
2021/04/03 03:58:03;;;;;;;69.20;32.73;;;;;;;3.02;73.03;97971.42;115035;1202;24734;-77
2021/04/03 04:00:32;;;;;;;68.50;35.20;;;;;;;2.99;73.16;97972.68;115113;1196;23106;-77
2021/04/03 04:03:05;;;;;;;75.33;36.03;;;;;;;2.97;73.25;97974.73;115130;1201;23244;-77
2021/04/03 04:05:33;;;;;;;73.45;37.30;;;;;;;2.95;73.43;97963.36;115119;1202;23083;-77
2021/04/03 04:08:03;;;;;;;72.65;37.68;;;;;;;2.93;73.69;97964.61;115035;1197;23105;-77
2021/04/03 04:10:31;;;;;;;77.85;38.50;;;;;;;2.90;73.88;97965.84;115137;1196;23085;-77
2021/04/03 04:12:58;;;;;;;78.77;38.57;;;;;;;2.89;73.47;97966.08;115050;1202;24275;-77
2021/04/03 04:15:26;;;;;;;81.27;38.47;;;;;;;2.85;74.23;97969.17;115094;1201;23090;-77
2021/04/03 04:17:53;;;;;;;74.55;38.50;;;;;;;2.82;74.10;97961.51;115022;1202;23090;-77
2021/04/03 04:20:21;;;;;;;79.80;37.73;;;;;;;2.80;74.33;97960.89;115031;1200;23070;-77
2021/04/03 04:22:51;;;;;;;82.85;40.40;;;;;;;2.75;74.30;97968.75;115037;1197;23090;-76
2021/04/03 04:25:19;;;;;;;86.60;41.60;;;;;;;2.73;74.46;97973.52;115035;1202;23088;-76
2021/04/03 04:27:46;;;;;;;76.65;37.05;;;;;;;2.71;74.66;97962.14;115109;1202;26060;-76
2021/04/03 04:30:14;;;;;;;83.87;41.33;;;;;;;2.71;74.98;97974.73;115090;1202;26625;-76
2021/04/03 04:32:48;;;;;;;74.87;35.10;;;;;;;2.70;75.11;97973.09;115060;1202;23082;-76
2021/04/03 04:35:17;;;;;;;72.80;36.50;;;;;;;2.68;75.25;97975.98;115139;1202;26175;-76
2021/04/03 04:37:49;;;;;;;84.10;43.20;;;;;;;2.64;75.41;97970.20;114998;1202;23099;-76
2021/04/03 04:40:17;;;;;;;82.78;40.65;;;;;;;2.64;75.64;97967.52;115076;1202;23106;-76
2021/04/03 04:42:45;;;;;;;66.55;32.70;;;;;;;2.69;75.92;97971.43;115041;1200;23158;-76
2021/04/03 04:45:14;;;;;;;77.87;39.03;;;;;;;2.68;76.00;97972.48;115000;1202;23100;-76
2021/04/03 04:47:41;;;;;;;87.67;42.47;;;;;;;2.68;76.06;97978.67;114839;1200;24270;-76
2021/04/03 04:50:10;;;;;;;83.70;39.60;;;;;;;2.70;76.34;97976.61;114755;1197;23100;-76
2021/04/03 04:52:39;;;;;;;80.18;42.98;;;;;;;2.73;76.29;97975.38;115068;1202;23122;-76
2021/04/03 04:55:08;;;;;;;92.40;44.07;;;;;;;2.79;76.27;97974.54;115101;1197;23254;-76
2021/04/03 04:57:35;;;;;;;75.43;38.63;;;;;;;2.83;76.21;97967.70;115041;1202;23120;-77
2021/04/03 05:00:05;;;;;;;78.45;40.45;;;;;;;2.87;76.32;97970.80;115003;1202;23095;-77
2021/04/03 05:02:43;;;;;;;85.00;41.00;;;;;;;2.95;76.17;97981.36;115090;1196;23552;-77
2021/04/03 05:05:10;;;;;;;87.87;43.23;;;;;;;2.98;76.37;97986.34;115001;1200;26162;-77
2021/04/03 05:07:37;;;;;;;88.73;43.90;;;;;;;3.04;76.36;97983.61;115058;1202;23188;-77
2021/04/03 05:10:05;;;;;;;84.65;43.70;;;;;;;3.12;76.15;97987.97;115063;1197;23086;-77
2021/04/03 05:12:32;;;;;;;75.97;38.10;;;;;;;3.18;76.13;97989.81;115054;1201;23105;-77
2021/04/03 05:14:58;;;;;;;63.03;31.37;;;;;;;3.23;75.95;97997.27;114792;1201;23106;-77
2021/04/03 05:17:25;;;;;;;75.03;36.57;;;;;;;3.22;75.96;97996.45;114998;1197;26083;-77
2021/04/03 05:19:53;;;;;;;77.40;38.20;;;;;;;3.21;75.90;97999.34;115009;1202;25983;-78
2021/04/03 05:22:20;;;;;;;81.03;40.37;;;;;;;3.21;76.13;98010.93;114739;1199;26184;-76
2021/04/03 05:24:47;;;;;;;86.90;40.73;;;;;;;3.20;76.14;98013.83;115118;1202;23086;-77
2021/04/03 05:27:14;;;;;;;93.17;42.17;;;;;;;3.23;76.04;98018.80;115048;1201;23085;-77
2021/04/03 05:29:41;;;;;;;75.50;38.00;;;;;;;3.28;76.10;98010.93;114860;1197;26089;-77
2021/04/03 05:32:08;;;;;;;83.13;38.37;;;;;;;3.34;76.14;98018.15;115045;1196;26114;-77
2021/04/03 05:34:35;;;;;;;66.83;34.10;;;;;;;3.40;75.92;98020.02;115059;1202;23090;-78
2021/04/03 05:37:02;;;;;;;71.00;35.23;;;;;;;3.43;75.66;98026.83;114798;1197;23090;-77
2021/04/03 05:39:29;;;;;;;68.07;32.67;;;;;;;3.46;75.55;98028.30;115110;1202;23240;-77
2021/04/03 05:41:57;;;;;;;65.33;33.67;;;;;;;3.49;75.24;98034.09;115007;1201;27198;-77
2021/04/03 05:44:26;;;;;;;60.90;29.23;;;;;;;3.52;75.59;98036.34;115025;1202;24704;-77
2021/04/03 05:46:54;;;;;;;51.18;26.05;;;;;;;3.58;75.46;98043.59;115020;1200;25952;-77
2021/04/03 05:49:21;;;;;;;52.85;26.40;;;;;;;3.67;75.64;98036.11;115102;1201;23212;-77
2021/04/03 05:51:49;;;;;;;56.13;29.10;;;;;;;3.76;75.55;98028.64;115021;1202;23114;-76
2021/04/03 05:54:17;;;;;;;57.45;27.85;;;;;;;3.89;75.86;98039.35;115025;1200;23115;-76
2021/04/03 05:56:44;;;;;;;49.37;26.53;;;;;;;4.03;75.30;98042.02;115103;1201;23228;-77
2021/04/03 05:59:11;;;;;;;45.43;24.70;;;;;;;4.13;74.94;98045.08;115059;1202;23086;-77
2021/04/03 06:01:38;;;;;;;42.95;23.65;;;;;;;4.24;74.57;98048.97;114847;1201;23221;-77
2021/04/03 06:04:05;;;;;;;44.80;23.25;;;;;;;4.35;74.06;98048.28;115321;1196;23109;-77
2021/04/03 06:06:34;;;;;;;36.67;20.33;;;;;;;4.47;74.16;98041.17;115312;1201;23260;-77
2021/04/03 06:09:01;;;;;;;41.90;21.13;;;;;;;4.60;74.44;98053.74;115335;1197;23113;-77
2021/04/03 06:11:28;;;;;;;30.13;17.20;;;;;;;4.67;73.48;98054.53;115167;1200;23105;-77
2021/04/03 06:14:01;;;;;;;39.17;19.67;;;;;;;4.72;72.81;98051.19;115244;1201;23104;-77
2021/04/03 06:16:39;;;;;;;40.57;19.33;;;;;;;4.79;72.54;98051.97;115126;1197;23217;-77
2021/04/03 06:19:15;;;;;;;41.20;20.25;;;;;;;4.83;73.13;98060.45;115086;1198;23810;-77
2021/04/03 06:22:01;;;;;;;38.00;19.40;;;;;;;4.87;72.92;98067.91;115388;1202;23082;-77
2021/04/03 06:24:37;;;;;;;33.45;18.70;;;;;;;4.88;72.30;98069.55;115057;1196;23809;-77
2021/04/03 06:27:08;;;;;;;37.57;21.03;;;;;;;4.88;72.18;98074.94;115274;1196;23229;-77
2021/04/03 06:29:49;;;;;;;40.70;20.95;;;;;;;4.90;72.20;98074.73;115017;1197;23386;-77
2021/04/03 06:32:35;;;;;;;36.30;18.17;;;;;;;4.92;72.21;98078.88;115212;1202;23089;-77
2021/04/03 06:35:02;;;;;;;36.07;19.07;;;;;;;4.91;71.91;98081.80;115284;1196;23614;-77
2021/04/03 06:37:32;;;;;;;43.60;20.85;;;;;;;4.90;72.37;98072.03;115121;1197;25952;-77
2021/04/03 06:40:01;;;;;;;47.10;22.30;;;;;;;4.89;72.14;98073.09;115209;1202;23260;-77
2021/04/03 06:42:47;;;;;;;;;;;;;;;4.88;72.32;98083.03;114947;1206;23116;-77
2021/04/03 06:45:22;;;;;;;36.70;18.10;;;;;;;4.82;72.52;98088.50;115094;1202;21739;-77
2021/04/03 06:47:52;;;;;;;38.73;19.87;;;;;;;4.79;72.75;98084.34;115157;1196;27396;-77
2021/04/03 06:50:20;;;;;;;;;;;;;;;4.78;72.38;98084.56;115211;1197;23227;-77
2021/04/03 06:52:47;;;;;;;32.90;18.10;;;;;;;4.80;72.81;98088.71;115308;1202;23199;-77
2021/04/03 06:55:17;;;;;;;37.70;20.13;;;;;;;4.81;72.53;98086.83;115292;1196;25999;-77
2021/04/03 06:57:46;;;;;;;38.20;20.03;;;;;;;4.81;73.39;98094.92;115271;1202;23168;-76
2021/04/03 07:00:17;;;;;;;32.88;17.73;;;;;;;4.78;73.55;98098.05;115332;1202;23172;-77
2021/04/03 07:02:57;;;;;;;39.40;21.50;;;;;;;4.78;73.78;98092.66;115370;1196;23086;-77
2021/04/03 07:05:26;;;;;;;38.00;21.37;;;;;;;4.78;74.00;98098.05;115216;1202;23102;-77
2021/04/03 07:07:55;;;;;;;32.35;18.35;;;;;;;4.75;74.11;98099.32;115451;1200;23249;-77
2021/04/03 07:10:23;;;;;;;19.08;11.98;;;;;;;4.68;74.94;98112.02;115333;1202;23085;-77
2021/04/03 07:12:52;;;;;;;23.27;13.43;;;;;;;4.59;75.65;98107.92;115285;1202;23097;-77
2021/04/03 07:15:20;;;;;;;20.93;13.00;;;;;;;4.44;76.33;98116.27;115421;1197;23087;-77
2021/04/03 07:17:48;;;;;;;24.05;14.05;;;;;;;4.26;77.30;98114.27;115465;1196;23092;-77
2021/04/03 07:20:18;;;;;;;22.35;13.20;;;;;;;4.14;77.59;98119.48;115261;1202;23109;-77
2021/04/03 07:22:57;;;;;;;26.73;15.07;;;;;;;4.05;77.67;98131.53;115402;1197;23095;-77
2021/04/03 07:25:27;;;;;;;20.75;12.00;;;;;;;3.96;78.81;98131.75;115240;1196;23637;-77
2021/04/03 07:27:55;;;;;;;24.20;14.47;;;;;;;3.90;78.12;98129.09;115358;1202;26013;-77
2021/04/03 07:30:42;;;;;;;25.50;16.20;;;;;;;3.84;78.20;98138.81;115394;1201;23218;-77
2021/04/03 07:33:15;;;;;;;32.07;19.40;;;;;;;3.84;78.88;98135.30;115465;1200;23082;-77
2021/04/03 07:35:56;;;;;;;34.40;18.90;;;;;;;3.89;79.65;98138.20;115132;1200;26204;-77
2021/04/03 07:38:24;;;;;;;23.93;12.53;;;;;;;3.92;79.56;98149.38;115219;1202;23329;-77
2021/04/03 07:40:56;;;;;;;21.67;12.57;;;;;;;3.90;80.04;98142.56;115342;1197;23090;-77
2021/04/03 07:43:34;;;;;;;22.77;13.53;;;;;;;3.84;80.32;98154.16;115304;1196;26172;-77
2021/04/03 07:46:06;;;;;;;21.00;11.35;;;;;;;3.79;79.93;98152.11;115243;1202;26683;-77
2021/04/03 07:48:38;;;;;;;17.20;10.03;;;;;;;3.79;79.18;98158.31;115299;1196;23376;-77
2021/04/03 07:51:10;;;;;;;17.27;10.97;;;;;;;3.80;79.71;98159.13;115258;1201;23153;-77
2021/04/03 07:53:45;;;;;;;14.57;8.97;;;;;;;3.80;80.00;98162.64;115236;1202;23106;-77
2021/04/03 07:56:15;;;;;;;15.35;10.10;;;;;;;3.82;79.20;98169.70;115241;1201;23097;-77
2021/04/03 07:59:01;;;;;;;13.80;8.10;;;;;;;3.83;79.65;98166.80;115280;1201;25952;-77
2021/04/03 08:01:29;;;;;;;14.50;8.40;;;;;;;3.84;79.95;98164.93;115301;1196;23106;-77
2021/04/03 08:04:02;;;;;;;16.13;10.37;;;;;;;3.88;80.08;98167.01;115414;1202;23086;-77
2021/04/03 08:06:33;;;;;;;12.93;7.90;;;;;;;3.94;79.49;98174.23;115344;1197;24800;-77
2021/04/03 08:09:03;;;;;;;9.80;6.00;;;;;;;3.97;79.81;98170.31;115408;1203;23082;-78
2021/04/03 08:11:30;;;;;;;14.30;8.57;;;;;;;4.02;79.75;98183.98;115025;1202;24917;-77
2021/04/03 08:13:59;;;;;;;10.67;6.87;;;;;;;4.08;78.97;98182.31;115323;1199;23132;-77
2021/04/03 08:16:29;;;;;;;9.83;6.30;;;;;;;4.13;78.61;98182.52;115259;1197;23241;-77
2021/04/03 08:19:11;;;;;;;10.73;6.43;;;;;;;4.19;77.46;98179.78;114964;1202;23119;-77
2021/04/03 08:21:46;;;;;;;12.33;7.67;;;;;;;4.24;78.02;98186.43;115435;1196;23087;-77
2021/04/03 08:24:19;;;;;;;9.47;5.53;;;;;;;4.18;77.13;98180.84;115161;1203;23084;-77
2021/04/03 08:26:47;;;;;;;11.20;8.03;;;;;;;4.20;77.64;98180.64;115477;1196;26142;-77
2021/04/03 08:29:21;;;;;;;8.77;6.00;;;;;;;4.25;76.16;98186.22;115287;1202;23221;-78
2021/04/03 08:31:49;;;;;;;7.43;5.23;;;;;;;4.31;76.71;98182.67;115264;1196;23233;-77
2021/04/03 08:34:17;;;;;;;9.53;6.10;;;;;;;4.34;75.96;98187.64;115109;1200;23100;-77
2021/04/03 08:36:44;;;;;;;8.23;6.27;;;;;;;4.36;75.12;98190.13;115053;1202;23237;-77
2021/04/03 08:39:13;;;;;;;10.75;6.30;;;;;;;4.40;76.33;98196.75;115204;1200;23182;-77
2021/04/03 08:41:43;;;;;;;9.63;5.67;;;;;;;4.49;76.55;98195.47;115111;1196;23197;-77
2021/04/03 08:44:22;;;;;;;11.03;5.60;;;;;;;4.51;73.87;98187.99;115113;1200;23121;-77
2021/04/03 08:46:51;;;;;;;11.20;7.10;;;;;;;4.53;74.52;98193.17;115097;1196;23260;-77
2021/04/03 08:49:24;;;;;;;9.50;6.73;;;;;;;4.54;73.40;98190.27;115034;1201;25327;-77
2021/04/03 08:51:51;;;;;;;11.97;7.07;;;;;;;4.58;74.46;98185.28;115102;1199;23102;-77
2021/04/03 08:54:19;;;;;;;11.55;6.40;;;;;;;4.64;73.35;98192.53;114996;1202;23092;-77
2021/04/03 08:56:47;;;;;;;11.50;6.83;;;;;;;4.65;73.11;98183.38;115147;1202;23146;-77
2021/04/03 08:59:16;;;;;;;9.43;6.77;;;;;;;4.68;73.20;98185.66;115053;1200;26044;-77
2021/04/03 09:01:47;;;;;;;15.43;7.33;;;;;;;4.66;71.24;98185.05;115138;1201;23110;-77
2021/04/03 09:04:14;;;;;;;15.45;7.65;;;;;;;4.63;72.46;98190.05;115060;1202;23095;-77
2021/04/03 09:06:53;;;;;;;12.77;7.83;;;;;;;4.56;71.79;98185.48;115048;1202;23078;-77
2021/04/03 09:09:23;;;;;;;13.13;8.10;;;;;;;4.49;72.74;98197.34;114970;1202;27274;-77
2021/04/03 09:12:09;;;;;;;;;;;;;;;4.44;72.47;98200.67;115076;1200;27293;-84
2021/04/03 09:14:52;;;;;;;12.60;8.03;;;;;;;4.50;73.65;98201.71;115163;1200;21621;-76
2021/04/03 09:17:27;;;;;;;17.73;9.90;;;;;;;4.61;74.19;98201.05;115012;1200;23099;-77
2021/04/03 09:20:14;;;;;;;13.03;8.47;;;;;;;4.72;74.74;98196.85;115077;1196;23151;-77
2021/04/03 09:22:44;;;;;;;14.73;8.13;;;;;;;4.84;73.51;98202.41;115104;1202;26213;-77
2021/04/03 09:25:13;;;;;;;15.00;8.67;;;;;;;4.87;73.37;98199.27;115104;1201;23098;-77
2021/04/03 09:27:42;;;;;;;19.60;10.58;;;;;;;4.91;72.22;98198.63;115097;1201;23123;-76
2021/04/03 09:30:13;;;;;;;15.57;9.57;;;;;;;4.99;72.19;98192.14;115087;1201;23082;-77
2021/04/03 09:32:47;;;;;;;16.53;9.83;;;;;;;5.00;71.28;98193.81;115009;1201;26127;-76
2021/04/03 09:35:27;;;;;;;16.90;9.90;;;;;;;4.95;71.08;98190.93;115035;1202;23082;-76
2021/04/03 09:38:03;;;;;;;17.20;9.35;;;;;;;4.91;71.15;98187.02;115108;1202;23227;-76
2021/04/03 09:40:35;;;;;;;19.90;11.33;;;;;;;4.86;71.82;98197.63;115143;1201;23071;-76
2021/04/03 09:43:02;;;;;;;21.45;10.65;;;;;;;4.87;72.09;98202.81;115155;1202;23113;-76
2021/04/03 09:45:32;;;;;;;20.07;11.80;;;;;;;4.87;71.41;98202.81;114799;1200;23090;-77
2021/04/03 09:48:03;;;;;;;24.03;12.10;;;;;;;4.85;71.95;98210.30;115111;1201;23096;-77
2021/04/03 09:50:30;;;;;;;16.90;9.83;;;;;;;4.88;72.44;98209.03;115071;1201;23154;-77
2021/04/03 09:52:57;;;;;;;21.07;12.70;;;;;;;4.96;72.60;98200.70;115111;1200;23266;-77
2021/04/03 09:55:24;;;;;;;17.27;10.40;;;;;;;5.16;71.93;98205.16;115104;1201;26149;-77
2021/04/03 09:57:51;;;;;;;15.85;8.85;;;;;;;5.34;71.32;98199.84;114783;1202;23100;-77
2021/04/03 10:00:18;;;;;;;16.87;9.17;;;;;;;5.59;70.09;98207.98;115003;1202;26053;-77
2021/04/03 10:02:45;;;;;;;17.27;9.47;;;;;;;5.93;69.35;98205.02;115101;1197;23115;-77
2021/04/03 10:05:12;;;;;;;18.75;10.45;;;;;;;6.08;66.83;98202.84;115023;1201;24580;-77
2021/04/03 10:07:39;;;;;;;16.57;9.93;;;;;;;6.07;66.07;98193.91;115099;1197;23086;-77
2021/04/03 10:10:07;;;;;;;19.60;10.90;;;;;;;6.08;65.16;98189.33;115087;1201;26577;-77
2021/04/03 10:12:34;;;;;;;18.00;11.05;;;;;;;6.10;66.24;98194.51;115119;1197;23086;-77
2021/04/03 10:15:16;;;;;;;15.47;9.00;;;;;;;6.19;65.28;98195.88;115096;1199;23534;-77
2021/04/03 10:17:43;;;;;;;17.97;10.43;;;;;;;6.23;64.72;98195.22;115057;1201;23480;-77
2021/04/03 10:20:11;;;;;;;14.57;8.70;;;;;;;6.26;62.96;98185.81;115110;1200;23188;-77
2021/04/03 10:22:38;;;;;;;16.33;9.30;;;;;;;6.27;63.23;98190.19;115060;1202;23192;-77
2021/04/03 10:25:06;;;;;;;15.47;9.40;;;;;;;6.30;63.15;98189.71;115065;1201;23090;-77
2021/04/03 10:27:33;;;;;;;12.65;8.55;;;;;;;6.29;61.41;98196.19;115062;1201;23238;-77
2021/04/03 10:30:00;;;;;;;12.90;8.30;;;;;;;6.22;60.22;98190.02;115004;1203;24720;-77
2021/04/03 10:32:27;;;;;;;12.33;7.87;;;;;;;6.17;62.28;98200.68;114999;1202;27208;-77
2021/04/03 10:34:53;;;;;;;15.10;8.40;;;;;;;6.15;62.03;98200.08;115121;1202;23218;-76
2021/04/03 10:37:20;;;;;;;16.67;10.60;;;;;;;6.23;63.80;98203.33;114992;1201;23106;-77
2021/04/03 10:39:47;;;;;;;14.43;8.63;;;;;;;6.29;63.94;98207.00;115159;1202;23089;-77
2021/04/03 10:42:14;;;;;;;18.10;10.10;;;;;;;6.38;63.33;98202.95;115167;1202;23124;-77
2021/04/03 10:44:41;;;;;;;16.30;10.37;;;;;;;6.51;62.97;98203.86;115206;1200;23836;-77
2021/04/03 10:47:08;;;;;;;17.00;10.80;;;;;;;6.60;63.26;98208.73;115093;1202;23185;-77
2021/04/03 10:49:35;;;;;;;17.10;10.45;;;;;;;6.71;62.10;98209.89;115120;1197;24746;-77
2021/04/03 10:52:02;;;;;;;17.05;9.35;;;;;;;6.79;61.99;98209.56;115005;1202;23207;-77
2021/04/03 10:54:29;;;;;;;17.75;9.70;;;;;;;6.83;62.66;98201.81;115043;1196;23229;-77
2021/04/03 10:56:56;;;;;;;14.35;9.95;;;;;;;6.79;62.13;98214.16;115188;1197;23170;-77
2021/04/03 10:59:23;;;;;;;18.00;10.67;;;;;;;6.73;61.75;98204.22;115057;1202;23099;-77
2021/04/03 11:01:50;;;;;;;17.00;11.00;;;;;;;6.66;62.04;98212.44;114995;1202;23118;-77
2021/04/03 11:04:17;;;;;;;18.17;11.50;;;;;;;6.55;63.26;98216.73;114773;1200;23098;-77
2021/04/03 11:06:44;;;;;;;16.37;9.43;;;;;;;6.34;62.15;98212.58;115088;1202;23099;-77
2021/04/03 11:09:11;;;;;;;11.03;6.60;;;;;;;6.08;61.83;98216.36;115115;1200;23116;-77
2021/04/03 11:11:38;;;;;;;10.80;7.00;;;;;;;5.85;61.97;98225.86;115077;1203;23230;-77
2021/04/03 11:14:05;;;;;;;10.80;6.20;;;;;;;5.64;65.28;98234.34;115106;1202;24720;-77
2021/04/03 11:16:32;;;;;;;7.80;5.00;;;;;;;5.25;67.24;98257.84;115075;1201;25964;-77
2021/04/03 11:18:59;;;;;;;8.07;5.60;;;;;;;4.95;70.04;98244.90;115137;1197;23108;-77
2021/04/03 11:21:26;;;;;;;7.57;5.90;;;;;;;4.71;72.85;98273.41;115101;1198;23298;-77
2021/04/03 11:23:53;;;;;;;9.63;7.03;;;;;;;4.50;74.86;98275.34;115097;1197;24743;-77
2021/04/03 11:26:20;;;;;;;11.30;7.63;;;;;;;4.30;76.20;98271.83;114814;1202;23119;-77
2021/04/03 11:28:48;;;;;;;12.07;7.90;;;;;;;4.08;77.82;98280.14;115067;1201;23179;-78
2021/04/03 11:31:15;;;;;;;11.63;7.60;;;;;;;3.84;79.04;98288.83;115062;1202;23269;-78
2021/04/03 11:33:42;;;;;;;14.03;8.03;;;;;;;3.63;79.30;98281.76;115007;1201;23115;-78
2021/04/03 11:36:09;;;;;;;15.17;8.23;;;;;;;3.49;80.19;98284.44;115061;1202;26128;-78